createdAt,value
2022-10-13T00:00:15.563Z,21.50
2022-10-13T00:02:46.182Z,16.27
2022-10-13T00:05:16.879Z,15.72
2022-10-13T00:07:47.601Z,14.18
2022-10-13T00:10:18.238Z,10.65
2022-10-13T00:12:48.753Z,12.15
2022-10-13T00:15:19.736Z,11.08
2022-10-13T00:17:50.492Z,12.50
2022-10-13T00:20:21.290Z,15.28
2022-10-13T00:22:51.806Z,18.35
2022-10-13T00:25:22.404Z,17.17
2022-10-13T00:27:53.306Z,12.65
2022-10-13T00:30:24.074Z,13.03
2022-10-13T00:32:54.578Z,15.15
2022-10-13T00:35:25.180Z,14.38
2022-10-13T00:37:55.831Z,13.45
2022-10-13T00:40:26.502Z,13.10
2022-10-13T00:43:05.457Z,11.10
2022-10-13T00:45:40.827Z,11.95
2022-10-13T00:48:11.594Z,11.22
2022-10-13T00:50:44.341Z,10.60
2022-10-13T00:53:16.554Z,10.55
2022-10-13T00:55:48.336Z,10.53
2022-10-13T00:58:21.072Z,10.85
2022-10-13T01:00:54.364Z,10.38
2022-10-13T01:03:25.913Z,9.95
2022-10-13T01:05:59.604Z,10.45
2022-10-13T01:08:31.776Z,9.88
2022-10-13T01:11:01.732Z,9.85
2022-10-13T01:13:34.761Z,9.60
2022-10-13T01:16:07.950Z,9.80
2022-10-13T01:18:41.085Z,10.65
2022-10-13T01:21:13.174Z,11.20
2022-10-13T01:23:46.689Z,10.80
2022-10-13T01:26:19.282Z,10.75
2022-10-13T01:28:52.613Z,11.05
2022-10-13T01:31:26.156Z,9.68
2022-10-13T01:33:59.426Z,11.03
2022-10-13T01:36:33.164Z,9.93
2022-10-13T01:39:05.115Z,10.45
2022-10-13T01:41:38.461Z,10.20
2022-10-13T01:44:13.043Z,10.70
2022-10-13T01:46:45.532Z,10.13
2022-10-13T01:49:19.113Z,9.88
2022-10-13T01:51:51.114Z,9.58
2022-10-13T01:54:21.707Z,8.93
2022-10-13T01:56:55.174Z,9.40
2022-10-13T01:59:28.404Z,8.83
2022-10-13T02:02:00.159Z,9.05
2022-10-13T02:04:33.284Z,9.25
2022-10-13T02:07:06.451Z,8.83
2022-10-13T02:09:38.323Z,9.20
2022-10-13T02:12:11.837Z,9.00
2022-10-13T02:14:47.273Z,9.33
2022-10-13T02:17:18.570Z,9.85
2022-10-13T02:19:49.647Z,9.08
2022-10-13T02:22:21.482Z,9.55
2022-10-13T02:25:07.094Z,9.23
2022-10-13T02:27:47.241Z,9.63
2022-10-13T02:30:20.560Z,8.73
2022-10-13T02:32:51.502Z,9.73
2022-10-13T02:35:22.738Z,8.98
2022-10-13T02:37:53.802Z,10.15
2022-10-13T02:40:24.453Z,9.90
2022-10-13T02:42:55.147Z,9.38
2022-10-13T02:45:26.610Z,9.03
2022-10-13T02:47:59.002Z,9.58
2022-10-13T02:50:30.685Z,9.40
2022-10-13T02:53:02.061Z,9.65
2022-10-13T02:55:32.971Z,8.83
2022-10-13T02:58:03.461Z,8.63
2022-10-13T03:00:44.367Z,8.45
2022-10-13T03:03:15.449Z,9.03
2022-10-13T03:05:47.310Z,8.43
2022-10-13T03:08:18.077Z,9.43
2022-10-13T03:10:48.985Z,8.85
2022-10-13T03:13:21.028Z,8.63
2022-10-13T03:15:51.879Z,8.20
2022-10-13T03:18:22.749Z,9.28
2022-10-13T03:20:55.832Z,8.83
2022-10-13T03:23:27.145Z,9.18
2022-10-13T03:25:58.293Z,8.50
2022-10-13T03:28:29.776Z,8.18
2022-10-13T03:31:03.295Z,8.93
2022-10-13T03:33:34.480Z,9.28
2022-10-13T03:36:07.609Z,8.00
2022-10-13T03:38:38.840Z,7.65
2022-10-13T03:41:12.335Z,9.35
2022-10-13T03:43:44.929Z,8.68
2022-10-13T03:46:18.443Z,7.95
2022-10-13T03:48:50.228Z,8.98
2022-10-13T03:51:26.076Z,8.75
2022-10-13T03:53:56.784Z,9.10
2022-10-13T03:56:30.067Z,8.93
2022-10-13T03:59:02.855Z,8.85
2022-10-13T04:01:37.263Z,8.13
2022-10-13T04:04:10.267Z,7.72
2022-10-13T04:06:41.316Z,8.93
2022-10-13T04:09:12.452Z,7.70
2022-10-13T04:11:43.183Z,8.00
2022-10-13T04:14:14.015Z,8.70
2022-10-13T04:16:44.671Z,7.78
2022-10-13T04:19:17.427Z,8.30
2022-10-13T04:21:49.394Z,7.97
2022-10-13T04:24:20.340Z,7.75
2022-10-13T04:26:51.152Z,7.78
2022-10-13T04:29:22.054Z,7.55
2022-10-13T04:31:52.961Z,7.58
2022-10-13T04:34:24.398Z,7.58
2022-10-13T04:36:55.563Z,7.30
2022-10-13T04:39:26.125Z,7.67
2022-10-13T04:41:57.722Z,7.53
2022-10-13T04:44:28.688Z,6.78
2022-10-13T04:47:02.924Z,7.85
2022-10-13T04:49:35.769Z,7.97
2022-10-13T04:52:07.414Z,7.20
2022-10-13T04:54:38.357Z,7.90
2022-10-13T04:57:09.139Z,7.37
2022-10-13T04:59:39.657Z,7.62
2022-10-13T05:02:11.651Z,7.45
2022-10-13T05:04:42.279Z,7.80
2022-10-13T05:07:17.909Z,7.83
2022-10-13T05:09:45.830Z,7.22
2022-10-13T05:12:16.393Z,7.97
2022-10-13T05:14:47.431Z,7.22
2022-10-13T05:17:18.230Z,7.60
2022-10-13T05:19:50.508Z,7.05
2022-10-13T05:22:21.485Z,7.33
2022-10-13T05:24:52.814Z,7.08
2022-10-13T05:27:24.466Z,6.90
2022-10-13T05:29:55.695Z,6.97
2022-10-13T05:32:27.805Z,7.20
2022-10-13T05:35:00.977Z,7.60
2022-10-13T05:37:36.974Z,7.37
2022-10-13T05:40:12.171Z,7.40
2022-10-13T05:42:42.878Z,8.00
2022-10-13T05:45:14.658Z,7.30
2022-10-13T05:47:45.502Z,7.12
2022-10-13T05:50:16.541Z,7.33
2022-10-13T05:52:48.985Z,7.20
2022-10-13T05:55:21.488Z,7.17
2022-10-13T05:57:59.630Z,7.20
2022-10-13T06:00:32.060Z,7.83
2022-10-13T06:03:05.868Z,6.92
2022-10-13T06:05:39.520Z,7.17
2022-10-13T06:08:11.208Z,6.97
2022-10-13T06:10:42.929Z,6.78
2022-10-13T06:13:14.125Z,7.53
2022-10-13T06:15:45.670Z,7.03
2022-10-13T06:18:16.298Z,7.22
2022-10-13T06:20:48.570Z,7.05
2022-10-13T06:23:20.341Z,6.55
2022-10-13T06:25:57.728Z,7.25
2022-10-13T06:28:29.282Z,6.55
2022-10-13T06:31:00.346Z,7.17
2022-10-13T06:33:33.422Z,6.85
2022-10-13T06:36:05.872Z,6.65
2022-10-13T06:38:37.348Z,7.08
2022-10-13T06:41:10.434Z,7.30
2022-10-13T06:43:43.735Z,7.22
2022-10-13T06:46:16.391Z,6.80
2022-10-13T06:48:50.434Z,6.95
2022-10-13T06:51:21.563Z,7.17
2022-10-13T06:53:52.144Z,6.97
2022-10-13T06:56:24.976Z,7.22
2022-10-13T06:58:55.845Z,7.00
2022-10-13T07:01:29.297Z,7.30
2022-10-13T07:04:00.102Z,6.92
2022-10-13T07:06:30.901Z,8.23
2022-10-13T07:09:03.135Z,7.03
2022-10-13T07:11:33.743Z,6.72
2022-10-13T07:14:05.207Z,7.40
2022-10-13T07:16:36.153Z,6.17
2022-10-13T07:19:06.934Z,7.45
2022-10-13T07:21:37.906Z,7.53
2022-10-13T07:24:09.091Z,7.45
2022-10-13T07:26:39.827Z,7.45
2022-10-13T07:29:11.508Z,7.45
2022-10-13T07:31:42.695Z,7.35
2022-10-13T07:34:13.680Z,7.50
2022-10-13T07:36:47.862Z,6.87
2022-10-13T07:42:10.037Z,7.03
2022-10-13T07:44:42.410Z,6.80
2022-10-13T07:47:13.397Z,6.97
2022-10-13T07:49:43.998Z,6.90
2022-10-13T07:52:14.953Z,7.17
2022-10-13T07:54:45.691Z,7.42
2022-10-13T07:57:16.932Z,7.20
2022-10-13T07:59:48.147Z,6.62
2022-10-13T08:02:19.113Z,6.55
2022-10-13T08:04:51.599Z,6.55
2022-10-13T08:07:22.900Z,6.83
2022-10-13T08:09:53.857Z,6.17
2022-10-13T08:12:24.465Z,7.40
2022-10-13T08:14:55.930Z,6.92
2022-10-13T08:17:26.754Z,6.47
2022-10-13T08:19:58.115Z,6.37
2022-10-13T08:22:29.299Z,6.37
2022-10-13T08:25:05.298Z,6.95
2022-10-13T08:27:50.057Z,7.10
2022-10-13T08:30:10.055Z,6.83
2022-10-13T08:32:46.234Z,6.65
2022-10-13T08:35:18.706Z,6.83
2022-10-13T08:37:50.682Z,6.42
2022-10-13T08:40:24.158Z,6.40
2022-10-13T08:42:59.481Z,6.95
2022-10-13T08:45:45.933Z,6.60
2022-10-13T08:48:05.234Z,6.67
2022-10-13T08:50:39.082Z,6.70
2022-10-13T08:53:12.681Z,7.20
2022-10-13T08:55:46.287Z,6.83
2022-10-13T08:58:20.402Z,6.85
2022-10-13T09:00:52.877Z,6.97
2022-10-13T09:03:26.142Z,6.42
2022-10-13T09:05:59.212Z,7.12
2022-10-13T09:08:34.515Z,6.12
2022-10-13T09:11:06.057Z,6.72
2022-10-13T09:13:36.734Z,6.97
2022-10-13T09:16:11.508Z,7.25
2022-10-13T09:18:42.770Z,6.72
2022-10-13T09:21:15.703Z,6.55
2022-10-13T09:23:46.788Z,6.55
2022-10-13T09:26:19.940Z,6.75
2022-10-13T09:28:52.155Z,7.03
2022-10-13T09:31:25.965Z,6.55
2022-10-13T09:33:59.072Z,6.83
2022-10-13T09:36:33.249Z,6.80
2022-10-13T09:39:06.607Z,7.20
2022-10-13T09:41:42.133Z,7.37
2022-10-13T09:44:24.294Z,6.90
2022-10-13T09:46:53.388Z,7.30
2022-10-13T09:49:26.896Z,6.95
2022-10-13T09:51:59.945Z,8.80
2022-10-13T09:54:33.592Z,7.58
2022-10-13T09:57:07.191Z,7.55
2022-10-13T09:59:40.998Z,7.12
2022-10-13T10:02:18.013Z,7.75
2022-10-13T10:04:47.951Z,8.25
2022-10-13T10:07:23.219Z,7.95
2022-10-13T10:09:57.319Z,7.80
2022-10-13T10:12:30.751Z,7.67
2022-10-13T10:15:01.964Z,7.25
2022-10-13T10:17:33.829Z,7.62
2022-10-13T10:20:07.248Z,7.00
2022-10-13T10:22:38.754Z,7.87
2022-10-13T10:25:10.666Z,8.15
2022-10-13T10:27:44.849Z,8.00
2022-10-13T10:30:18.895Z,7.97
2022-10-13T10:32:51.936Z,7.40
2022-10-13T10:35:24.985Z,8.50
2022-10-13T10:38:00.824Z,8.50
2022-10-13T10:40:33.974Z,8.93
2022-10-13T10:43:10.380Z,7.80
2022-10-13T10:45:42.584Z,7.85
2022-10-13T10:48:15.616Z,8.00
2022-10-13T10:50:46.825Z,7.90
2022-10-13T10:53:18.519Z,8.48
2022-10-13T10:55:51.777Z,8.55
2022-10-13T10:58:23.865Z,8.80
2022-10-13T11:00:57.332Z,9.13
2022-10-13T11:03:32.015Z,11.73
2022-10-13T11:06:02.349Z,13.65
2022-10-13T11:08:36.042Z,14.80
2022-10-13T11:11:09.161Z,13.30
2022-10-13T11:13:42.495Z,13.38
2022-10-13T11:16:18.964Z,11.00
2022-10-13T11:18:52.167Z,9.85
2022-10-13T11:21:23.692Z,10.70
2022-10-13T11:24:01.862Z,9.90
2022-10-13T11:26:33.211Z,10.98
2022-10-13T11:29:04.057Z,10.68
2022-10-13T11:31:37.123Z,10.70
2022-10-13T11:34:10.338Z,10.65
2022-10-13T11:36:41.877Z,9.90
2022-10-13T11:39:15.014Z,9.90
2022-10-13T11:41:48.059Z,11.10
2022-10-13T11:44:21.162Z,11.28
2022-10-13T11:46:54.833Z,11.53
2022-10-13T11:49:31.409Z,11.05
2022-10-13T11:54:33.875Z,10.78
2022-10-13T11:57:08.985Z,11.65
2022-10-13T11:59:44.287Z,11.30
2022-10-13T12:02:19.139Z,10.75
2022-10-13T12:04:51.701Z,10.80
2022-10-13T12:07:24.512Z,10.63
2022-10-13T12:09:58.120Z,10.25
2022-10-13T12:12:30.771Z,11.60
2022-10-13T12:15:04.369Z,11.15
2022-10-13T12:17:37.026Z,10.98
2022-10-13T12:20:10.084Z,10.48
2022-10-13T12:22:43.144Z,10.50
2022-10-13T12:25:16.223Z,10.98
2022-10-13T12:27:49.310Z,11.50
2022-10-13T12:30:22.751Z,11.70
2022-10-13T12:32:55.392Z,11.43
2022-10-13T12:35:28.581Z,11.65
2022-10-13T12:38:04.220Z,11.93
2022-10-13T12:40:36.030Z,11.80
2022-10-13T12:43:07.537Z,11.15
2022-10-13T12:45:39.421Z,11.33
2022-10-13T12:48:12.827Z,12.30
2022-10-13T12:50:45.292Z,11.90
2022-10-13T12:53:21.499Z,11.50
2022-10-13T12:55:54.609Z,11.30
2022-10-13T12:58:28.309Z,11.88
2022-10-13T13:01:01.413Z,11.63
2022-10-13T13:03:32.661Z,11.33
2022-10-13T13:06:05.809Z,11.73
2022-10-13T13:08:37.559Z,12.63
2022-10-13T13:11:10.603Z,12.80
2022-10-13T13:13:49.805Z,13.75
2022-10-13T13:16:24.499Z,12.80
2022-10-13T13:18:55.253Z,12.30
2022-10-13T13:21:25.721Z,13.08
2022-10-13T13:23:59.361Z,13.38
2022-10-13T13:26:32.932Z,13.20
2022-10-13T13:29:03.506Z,13.38
2022-10-13T13:31:34.037Z,13.08
2022-10-13T13:34:04.716Z,13.03
2022-10-13T13:36:38.039Z,12.37
2022-10-13T13:39:10.941Z,12.90
2022-10-13T13:41:41.532Z,13.22
2022-10-13T13:44:15.250Z,13.28
2022-10-13T13:46:45.129Z,12.93
2022-10-13T13:49:15.962Z,13.28
2022-10-13T13:51:46.765Z,12.58
2022-10-13T13:54:17.576Z,13.72
2022-10-13T13:56:55.368Z,13.65
2022-10-13T13:59:25.910Z,13.20
2022-10-13T14:01:56.580Z,13.72
2022-10-13T14:04:27.249Z,13.60
2022-10-13T14:09:56.543Z,12.95
2022-10-13T14:12:26.266Z,14.30
2022-10-13T14:15:00.030Z,13.62
2022-10-13T14:17:30.954Z,13.80
2022-10-13T14:20:06.221Z,12.98
2022-10-13T14:25:28.129Z,13.50
2022-10-13T14:28:09.301Z,13.10
2022-10-13T14:30:43.619Z,14.78
2022-10-13T14:33:23.912Z,13.43
2022-10-13T14:35:57.016Z,14.10
2022-10-13T14:38:31.860Z,13.03
2022-10-13T14:41:03.372Z,13.43
2022-10-13T14:43:34.682Z,12.98
2022-10-13T14:46:10.045Z,13.75
2022-10-13T14:48:42.226Z,16.52
2022-10-13T14:51:14.047Z,13.45
2022-10-13T14:53:46.760Z,13.43
2022-10-13T14:56:20.342Z,12.45
2022-10-13T14:58:52.814Z,14.47
2022-10-13T15:01:24.029Z,13.83
2022-10-13T15:03:55.134Z,13.93
2022-10-13T15:06:30.493Z,13.45
2022-10-13T15:09:01.786Z,13.10
2022-10-13T15:11:34.306Z,12.33
2022-10-13T15:14:12.455Z,12.63
2022-10-13T15:16:45.098Z,13.50
2022-10-13T15:19:16.279Z,12.98
2022-10-13T15:21:53.541Z,12.63
2022-10-13T15:24:24.038Z,13.58
2022-10-13T15:26:56.147Z,12.45
2022-10-13T15:29:27.118Z,13.25
2022-10-13T15:32:00.432Z,12.68
2022-10-13T15:34:32.962Z,13.48
2022-10-13T15:37:03.806Z,13.35
2022-10-13T15:39:36.964Z,12.43
2022-10-13T15:42:14.961Z,12.47
2022-10-13T15:47:17.442Z,13.10
2022-10-13T15:49:50.321Z,13.20
2022-10-13T15:52:20.586Z,13.10
2022-10-13T15:54:55.447Z,12.00
2022-10-13T15:57:26.282Z,12.65
2022-10-13T16:00:03.702Z,12.45
2022-10-13T16:02:34.318Z,12.45
2022-10-13T16:05:06.699Z,13.43
2022-10-13T16:07:38.402Z,12.47
2022-10-13T16:10:17.443Z,12.90
2022-10-13T16:12:49.763Z,13.20
2022-10-13T16:15:23.382Z,13.90
2022-10-13T16:17:57.686Z,13.93
2022-10-13T16:20:30.626Z,14.38
2022-10-13T16:23:04.297Z,13.80
2022-10-13T16:25:37.817Z,13.20
2022-10-13T16:28:11.674Z,13.62
2022-10-13T16:30:45.085Z,12.85
2022-10-13T16:33:34.042Z,12.90
2022-10-13T16:36:06.744Z,13.43
2022-10-13T16:38:38.324Z,12.85
2022-10-13T16:41:15.307Z,13.98
2022-10-13T16:43:49.869Z,13.10
2022-10-13T16:46:22.391Z,13.20
2022-10-13T16:48:53.039Z,14.05
2022-10-13T16:51:31.103Z,13.83
2022-10-13T16:54:04.393Z,13.50
2022-10-13T16:56:34.800Z,14.28
2022-10-13T16:59:07.565Z,13.78
2022-10-13T17:01:40.371Z,14.30
2022-10-13T17:04:17.256Z,14.18
2022-10-13T17:06:49.609Z,14.20
2022-10-13T17:09:20.131Z,13.95
2022-10-13T17:11:50.950Z,13.78
2022-10-13T17:14:21.597Z,13.75
2022-10-13T17:16:57.426Z,14.10
2022-10-13T17:19:24.472Z,15.08
2022-10-13T17:21:55.450Z,13.50
2022-10-13T17:24:26.263Z,14.30
2022-10-13T17:26:59.655Z,14.13
2022-10-13T17:29:30.577Z,14.43
2022-10-13T17:32:02.504Z,13.58
2022-10-13T17:34:35.758Z,13.43
2022-10-13T17:37:09.997Z,14.13
2022-10-13T17:39:42.060Z,14.60
2022-10-13T17:42:12.936Z,14.83
2022-10-13T17:44:47.015Z,14.78
2022-10-13T17:47:22.488Z,14.55
2022-10-13T17:49:53.452Z,14.20
2022-10-13T17:52:24.222Z,14.80
2022-10-13T17:54:56.213Z,13.93
2022-10-13T17:57:28.979Z,14.47
2022-10-13T18:00:00.802Z,14.60
2022-10-13T18:02:33.804Z,15.93
2022-10-13T18:05:04.503Z,15.00
2022-10-13T18:07:35.106Z,15.93
2022-10-13T18:10:06.551Z,15.53
2022-10-13T18:12:37.584Z,15.93
2022-10-13T18:15:11.676Z,15.78
2022-10-13T18:17:43.034Z,17.27
2022-10-13T18:20:13.994Z,16.90
2022-10-13T18:22:45.134Z,17.15
2022-10-13T18:25:17.281Z,16.25
2022-10-13T18:27:47.983Z,16.67
2022-10-13T18:30:22.524Z,16.80
2022-10-13T18:32:54.091Z,17.32
2022-10-13T18:35:32.004Z,16.37
2022-10-13T18:37:59.070Z,17.05
2022-10-13T18:40:29.903Z,17.00
2022-10-13T18:43:00.403Z,16.77
2022-10-13T18:45:31.077Z,17.52
2022-10-13T18:48:01.596Z,16.75
2022-10-13T18:50:32.195Z,17.25
2022-10-13T18:53:04.617Z,17.92
2022-10-13T18:55:34.808Z,17.05
2022-10-13T18:58:08.383Z,17.37
2022-10-13T19:00:39.193Z,16.65
2022-10-13T19:03:10.005Z,17.25
2022-10-13T19:05:41.579Z,16.27
2022-10-13T19:08:12.188Z,17.70
2022-10-13T19:10:43.501Z,16.77
2022-10-13T19:13:14.243Z,16.70
2022-10-13T19:15:44.870Z,17.52
2022-10-13T19:18:16.117Z,16.60
2022-10-13T19:20:47.225Z,17.20
2022-10-13T19:23:19.247Z,16.75
2022-10-13T19:25:50.383Z,17.10
2022-10-13T19:28:21.850Z,17.37
2022-10-13T19:30:53.447Z,17.37
2022-10-13T19:33:27.062Z,17.57
2022-10-13T19:35:57.703Z,18.40
2022-10-13T19:38:29.168Z,18.05
2022-10-13T19:41:02.300Z,17.52
2022-10-13T19:43:33.339Z,18.87
2022-10-13T19:46:03.988Z,18.48
2022-10-13T19:48:34.910Z,18.17
2022-10-13T19:51:07.820Z,17.35
2022-10-13T19:53:40.341Z,17.60
2022-10-13T19:56:11.555Z,17.67
2022-10-13T19:58:42.260Z,17.92
2022-10-13T20:01:12.798Z,17.92
2022-10-13T20:03:43.890Z,17.92
2022-10-13T20:06:14.622Z,17.92
2022-10-13T20:08:46.317Z,17.57
2022-10-13T20:11:23.429Z,18.17
2022-10-13T20:13:51.593Z,19.12
2022-10-13T20:16:24.976Z,18.42
2022-10-13T20:18:58.012Z,17.62
2022-10-13T20:21:30.423Z,18.52
2022-10-13T20:24:01.371Z,17.98
2022-10-13T20:26:32.476Z,18.25
2022-10-13T20:29:03.127Z,18.17
2022-10-13T20:31:33.971Z,18.02
2022-10-13T20:34:04.820Z,19.00
2022-10-13T20:36:38.898Z,18.80
2022-10-13T20:39:07.479Z,18.45
2022-10-13T20:41:38.790Z,18.77
2022-10-13T20:44:09.404Z,18.80
2022-10-13T20:46:40.213Z,19.50
2022-10-13T20:49:12.924Z,20.55
2022-10-13T20:51:45.092Z,21.77
2022-10-13T20:54:19.360Z,19.70
2022-10-13T20:56:49.965Z,19.55
2022-10-13T20:59:23.505Z,18.85
2022-10-13T21:01:54.125Z,19.95
2022-10-13T21:04:24.656Z,21.23
2022-10-13T21:06:55.285Z,20.80
2022-10-13T21:09:25.999Z,19.85
2022-10-13T21:11:56.629Z,18.92
2022-10-13T21:14:27.286Z,20.08
2022-10-13T21:16:57.798Z,18.55
2022-10-13T21:19:29.891Z,18.48
2022-10-13T21:22:00.820Z,19.52
2022-10-13T21:24:31.343Z,18.80
2022-10-13T21:27:01.862Z,18.25
2022-10-13T21:29:32.601Z,19.87
2022-10-13T21:32:03.240Z,20.55
2022-10-13T21:34:33.850Z,19.00
2022-10-13T21:37:04.504Z,20.50
2022-10-13T21:39:35.088Z,18.98
2022-10-13T21:42:05.790Z,21.40
2022-10-13T21:44:36.520Z,18.87
2022-10-13T21:47:07.311Z,18.25
2022-10-13T21:49:37.851Z,17.90
2022-10-13T21:52:08.470Z,18.37
2022-10-13T21:54:39.271Z,18.48
2022-10-13T21:57:10.063Z,18.40
2022-10-13T21:59:40.703Z,18.35
2022-10-13T22:02:11.514Z,19.02
2022-10-13T22:04:43.399Z,18.15
2022-10-13T22:07:14.013Z,19.00
2022-10-13T22:09:44.554Z,18.30
2022-10-13T22:12:15.702Z,17.87
2022-10-13T22:14:48.981Z,17.65
2022-10-13T22:17:20.019Z,17.92
2022-10-13T22:19:51.069Z,18.12
2022-10-13T22:22:21.902Z,18.42
2022-10-13T22:24:52.752Z,18.52
2022-10-13T22:27:23.553Z,18.50
2022-10-13T22:29:54.328Z,19.90
2022-10-13T22:32:24.976Z,19.42
2022-10-13T22:34:55.578Z,19.32
2022-10-13T22:37:27.768Z,20.82
2022-10-13T22:40:01.153Z,20.50
2022-10-13T22:42:31.674Z,19.25
2022-10-13T22:45:02.412Z,18.77
2022-10-13T22:47:33.049Z,18.77
2022-10-13T22:50:04.158Z,18.87
2022-10-13T22:52:34.972Z,18.17
2022-10-13T22:55:05.605Z,18.77
2022-10-13T22:57:36.512Z,18.15
2022-10-13T23:00:11.165Z,16.85
2022-10-13T23:02:41.758Z,18.50
2022-10-13T23:05:12.796Z,17.65
2022-10-13T23:07:43.279Z,17.50
2022-10-13T23:10:13.899Z,17.77
2022-10-13T23:12:44.517Z,18.25
2022-10-13T23:15:15.223Z,18.27
2022-10-13T23:17:45.916Z,19.37
2022-10-13T23:20:16.698Z,18.70
2022-10-13T23:22:51.229Z,18.05
2022-10-13T23:25:22.664Z,18.10
2022-10-13T23:27:53.328Z,18.92
2022-10-13T23:30:23.978Z,19.23
2022-10-13T23:32:56.173Z,19.40
2022-10-13T23:35:26.981Z,29.15
2022-10-13T23:37:57.697Z,23.40
2022-10-13T23:40:28.401Z,23.92
2022-10-13T23:43:04.778Z,22.80
2022-10-13T23:45:35.296Z,26.55
2022-10-13T23:48:06.609Z,35.15
2022-10-13T23:50:37.405Z,26.15
2022-10-13T23:53:17.014Z,25.92
2022-10-13T23:55:47.719Z,33.13
2022-10-13T23:58:18.534Z,58.40
